createdAt,value
2023-05-09T00:00:43.743Z,64.63
2023-05-09T00:03:29.609Z,70.40
2023-05-09T00:06:15.592Z,70.35
2023-05-09T00:09:01.440Z,66.18
2023-05-09T00:11:48.773Z,66.47
2023-05-09T00:14:34.479Z,67.45
2023-05-09T00:17:22.587Z,67.97
2023-05-09T00:20:12.507Z,63.60
2023-05-09T00:22:58.258Z,68.75
2023-05-09T00:25:44.170Z,68.43
2023-05-09T00:28:32.289Z,65.20
2023-05-09T00:31:17.956Z,70.43
2023-05-09T00:34:03.624Z,74.45
2023-05-09T00:36:50.632Z,70.30
2023-05-09T00:39:36.377Z,71.25
2023-05-09T00:42:22.035Z,76.93
2023-05-09T00:45:10.636Z,76.57
2023-05-09T00:47:56.725Z,78.32
2023-05-09T00:50:42.906Z,72.55
2023-05-09T00:53:28.615Z,68.43
2023-05-09T00:56:15.107Z,74.25
2023-05-09T00:59:00.842Z,80.63
2023-05-09T01:01:48.190Z,78.25
2023-05-09T01:04:34.112Z,80.13
2023-05-09T01:07:29.045Z,83.30
2023-05-09T01:10:22.826Z,76.55
2023-05-09T01:13:22.735Z,81.53
2023-05-09T01:16:16.854Z,76.00
2023-05-09T01:19:22.657Z,74.03
2023-05-09T01:22:12.010Z,80.75
2023-05-09T01:25:36.123Z,75.20
2023-05-09T01:28:35.623Z,72.55
2023-05-09T01:31:24.197Z,77.75
2023-05-09T01:34:12.178Z,80.35
2023-05-09T01:37:00.865Z,72.22
2023-05-09T01:39:49.952Z,81.45
2023-05-09T01:42:41.289Z,76.20
2023-05-09T01:45:28.633Z,77.93
2023-05-09T01:48:16.768Z,81.18
2023-05-09T01:51:04.051Z,79.88
2023-05-09T01:53:51.606Z,75.72
2023-05-09T01:56:39.016Z,84.47
2023-05-09T01:59:26.799Z,78.97
2023-05-09T02:02:12.949Z,78.25
2023-05-09T02:05:00.807Z,79.68
2023-05-09T02:07:47.641Z,83.13
2023-05-09T02:10:34.645Z,78.07
2023-05-09T02:13:20.136Z,77.10
2023-05-09T02:16:07.756Z,74.82
2023-05-09T02:18:55.179Z,69.45
2023-05-09T02:21:42.273Z,73.20
2023-05-09T02:24:29.727Z,75.68
2023-05-09T02:27:16.262Z,68.90
2023-05-09T02:30:07.405Z,77.72
2023-05-09T02:32:57.096Z,66.07
2023-05-09T02:35:45.432Z,69.25
2023-05-09T02:38:33.675Z,73.22
2023-05-09T02:41:21.809Z,72.88
2023-05-09T02:44:07.962Z,71.05
2023-05-09T02:46:53.337Z,67.57
2023-05-09T02:49:38.960Z,63.90
2023-05-09T02:52:24.960Z,64.95
2023-05-09T02:55:12.546Z,62.90
2023-05-09T02:58:12.897Z,60.83
2023-05-09T03:01:00.145Z,58.05
2023-05-09T03:03:46.352Z,53.42
2023-05-09T03:06:33.102Z,54.35
2023-05-09T03:09:19.049Z,51.00
2023-05-09T03:12:06.656Z,54.67
2023-05-09T03:14:52.715Z,47.90
2023-05-09T03:17:39.183Z,44.60
2023-05-09T03:20:25.862Z,43.15
2023-05-09T03:23:11.732Z,40.33
2023-05-09T03:25:57.368Z,41.38
2023-05-09T03:28:46.276Z,41.50
2023-05-09T03:31:32.363Z,40.33
2023-05-09T03:34:18.279Z,43.83
2023-05-09T03:37:04.313Z,40.90
2023-05-09T03:39:51.868Z,40.33
2023-05-09T03:42:37.905Z,41.97
2023-05-09T03:45:26.497Z,42.33
2023-05-09T03:48:12.857Z,41.88
2023-05-09T03:51:04.785Z,50.70
2023-05-09T03:53:53.506Z,45.15
2023-05-09T03:56:40.504Z,38.53
2023-05-09T03:59:26.085Z,46.50
2023-05-09T04:02:13.620Z,43.50
2023-05-09T04:04:59.337Z,44.83
2023-05-09T04:07:45.473Z,43.40
2023-05-09T04:10:32.197Z,44.88
2023-05-09T04:13:18.068Z,45.22
2023-05-09T04:16:05.616Z,44.45
2023-05-09T04:18:54.287Z,40.47
2023-05-09T04:21:39.717Z,41.97
2023-05-09T04:24:25.973Z,40.22
2023-05-09T04:27:11.793Z,38.45
2023-05-09T04:29:57.774Z,39.28
2023-05-09T04:32:46.047Z,42.95
2023-05-09T04:35:33.621Z,40.42
2023-05-09T04:38:19.525Z,38.63
2023-05-09T04:41:06.037Z,38.53
2023-05-09T04:43:52.336Z,35.53
2023-05-09T04:46:39.346Z,40.45
2023-05-09T04:49:25.298Z,36.95
2023-05-09T04:52:12.169Z,37.15
2023-05-09T04:54:57.684Z,39.53
2023-05-09T04:57:47.304Z,40.33
2023-05-09T05:00:33.775Z,36.70
2023-05-09T05:03:19.813Z,35.90
2023-05-09T05:06:06.572Z,32.95
2023-05-09T05:08:53.714Z,37.92
2023-05-09T05:14:25.152Z,37.63
2023-05-09T05:17:10.805Z,32.15
2023-05-09T05:19:57.039Z,34.60
2023-05-09T05:22:43.632Z,33.70
2023-05-09T05:25:31.322Z,33.30
2023-05-09T05:28:19.243Z,31.35
2023-05-09T05:31:05.443Z,35.58
2023-05-09T05:33:51.786Z,31.88
2023-05-09T05:36:39.129Z,31.10
2023-05-09T05:39:24.977Z,32.78
2023-05-09T05:42:13.626Z,31.27
2023-05-09T05:45:06.273Z,32.63
2023-05-09T05:47:56.389Z,31.58
2023-05-09T05:50:43.133Z,30.50
2023-05-09T05:53:32.146Z,26.85
2023-05-09T05:56:19.093Z,28.13
2023-05-09T05:59:06.617Z,31.00
2023-05-09T06:01:52.653Z,30.45
2023-05-09T06:04:38.808Z,26.83
2023-05-09T06:07:24.385Z,30.20
2023-05-09T06:10:11.367Z,28.98
2023-05-09T06:12:57.192Z,26.25
2023-05-09T06:15:44.354Z,25.42
2023-05-09T06:18:31.088Z,28.85
2023-05-09T06:21:17.079Z,25.30
2023-05-09T06:24:11.779Z,25.75
2023-05-09T06:27:00.703Z,23.20
2023-05-09T06:29:46.603Z,24.40
2023-05-09T06:32:33.680Z,20.58
2023-05-09T06:35:19.616Z,21.88
2023-05-09T06:38:05.032Z,18.92
2023-05-09T06:40:50.772Z,26.90
2023-05-09T06:43:36.590Z,21.58
2023-05-09T06:46:22.468Z,18.17
2023-05-09T06:49:09.583Z,19.88
2023-05-09T06:51:55.322Z,20.23
2023-05-09T06:54:40.827Z,18.25
2023-05-09T06:57:26.993Z,21.40
2023-05-09T07:00:14.181Z,20.98
2023-05-09T07:03:00.147Z,18.23
2023-05-09T07:05:47.243Z,19.73
2023-05-09T07:08:32.968Z,17.35
2023-05-09T07:11:18.787Z,19.90
2023-05-09T07:14:04.716Z,17.77
2023-05-09T07:16:50.879Z,23.52
2023-05-09T07:19:36.791Z,19.67
2023-05-09T07:22:24.130Z,16.90
2023-05-09T07:25:10.614Z,17.73
2023-05-09T07:27:56.234Z,18.00
2023-05-09T07:30:43.669Z,17.10
2023-05-09T07:33:29.696Z,17.55
2023-05-09T07:36:17.110Z,17.52
2023-05-09T07:39:04.912Z,20.40
2023-05-09T07:41:50.737Z,18.95
2023-05-09T07:44:36.688Z,16.90
2023-05-09T07:47:22.376Z,20.98
2023-05-09T07:50:09.211Z,15.23
2023-05-09T07:52:55.661Z,15.57
2023-05-09T07:55:44.583Z,16.40
2023-05-09T07:58:30.573Z,18.98
2023-05-09T08:01:16.169Z,15.80
2023-05-09T08:04:02.279Z,14.77
2023-05-09T08:06:48.132Z,15.02
2023-05-09T08:09:33.688Z,22.38
2023-05-09T08:12:21.059Z,17.52
2023-05-09T08:15:07.705Z,16.35
2023-05-09T08:17:53.743Z,16.48
2023-05-09T08:20:39.865Z,14.43
2023-05-09T08:23:25.413Z,14.15
2023-05-09T08:26:11.254Z,18.88
2023-05-09T08:28:58.081Z,16.55
2023-05-09T08:31:43.876Z,16.80
2023-05-09T08:34:34.400Z,14.30
2023-05-09T08:37:20.226Z,13.25
2023-05-09T08:40:07.784Z,14.52
2023-05-09T08:42:54.302Z,13.45
2023-05-09T08:45:49.640Z,12.15
2023-05-09T08:48:38.703Z,11.88
2023-05-09T08:51:25.055Z,14.90
2023-05-09T08:54:11.849Z,14.35
2023-05-09T08:56:57.831Z,11.98
2023-05-09T08:59:45.438Z,10.93
2023-05-09T09:02:33.515Z,11.13
2023-05-09T09:05:40.263Z,11.20
2023-05-09T09:08:26.226Z,10.73
2023-05-09T09:11:13.289Z,11.73
2023-05-09T09:14:01.998Z,9.13
2023-05-09T09:16:48.947Z,9.43
2023-05-09T09:19:40.934Z,10.70
2023-05-09T09:22:33.678Z,9.25
2023-05-09T09:25:19.562Z,9.15
2023-05-09T09:28:05.363Z,7.55
2023-05-09T09:30:51.234Z,7.63
2023-05-09T09:33:37.134Z,10.15
2023-05-09T09:36:33.399Z,7.25
2023-05-09T09:39:19.406Z,8.45
2023-05-09T09:42:11.937Z,8.85
2023-05-09T09:45:02.378Z,7.65
2023-05-09T09:47:49.975Z,8.20
2023-05-09T09:50:35.555Z,9.02
2023-05-09T09:53:23.791Z,8.20
2023-05-09T09:56:10.119Z,8.07
2023-05-09T09:59:09.499Z,10.05
2023-05-09T10:01:57.387Z,8.50
2023-05-09T10:04:44.299Z,8.82
2023-05-09T10:07:35.350Z,10.95
2023-05-09T10:10:24.077Z,7.50
2023-05-09T10:13:12.047Z,9.10
2023-05-09T10:15:58.781Z,11.35
2023-05-09T10:18:44.838Z,9.07
2023-05-09T10:21:31.514Z,11.95
2023-05-09T10:24:22.258Z,9.93
2023-05-09T10:27:11.261Z,11.32
2023-05-09T10:30:07.099Z,10.13
2023-05-09T10:32:57.861Z,10.80
2023-05-09T10:35:46.756Z,8.73
2023-05-09T10:38:33.004Z,7.53
2023-05-09T10:41:19.927Z,7.63
2023-05-09T10:44:07.740Z,7.30
2023-05-09T10:46:54.180Z,7.88
2023-05-09T10:49:40.928Z,6.00
2023-05-09T10:52:32.893Z,6.43
2023-05-09T10:55:19.008Z,5.80
2023-05-09T10:58:22.775Z,7.07
2023-05-09T11:01:10.723Z,6.32
2023-05-09T11:03:58.311Z,6.70
2023-05-09T11:06:51.664Z,7.80
2023-05-09T11:09:41.200Z,6.05
2023-05-09T11:12:27.286Z,5.63
2023-05-09T11:15:13.166Z,6.80
2023-05-09T11:18:09.323Z,5.10
2023-05-09T11:20:56.017Z,5.97
2023-05-09T11:23:41.579Z,7.20
2023-05-09T11:26:30.366Z,6.68
2023-05-09T11:29:16.139Z,8.38
2023-05-09T11:32:05.901Z,6.82
2023-05-09T11:35:05.157Z,6.55
2023-05-09T11:37:52.913Z,8.85
2023-05-09T11:40:40.053Z,8.18
2023-05-09T11:43:25.912Z,8.25
2023-05-09T11:46:12.709Z,8.32
2023-05-09T11:48:59.345Z,8.77
2023-05-09T11:51:46.693Z,9.75
2023-05-09T11:54:32.465Z,8.85
2023-05-09T11:57:18.292Z,9.00
2023-05-09T12:00:06.356Z,9.38
2023-05-09T12:02:53.108Z,7.78
2023-05-09T12:05:42.688Z,9.52
2023-05-09T12:08:30.208Z,8.85
2023-05-09T12:11:16.014Z,8.80
2023-05-09T12:14:01.546Z,8.05
2023-05-09T12:16:47.153Z,8.63
2023-05-09T12:19:32.807Z,7.55
2023-05-09T12:22:20.084Z,9.60
2023-05-09T12:25:09.590Z,11.32
2023-05-09T12:27:57.270Z,7.05
2023-05-09T12:30:43.880Z,7.07
2023-05-09T12:33:30.510Z,8.88
2023-05-09T12:36:16.875Z,7.40
2023-05-09T12:39:02.715Z,7.03
2023-05-09T12:42:01.085Z,5.95
2023-05-09T12:44:50.731Z,7.07
2023-05-09T12:47:38.830Z,7.00
2023-05-09T12:50:32.190Z,6.97
2023-05-09T12:53:24.552Z,6.18
2023-05-09T12:56:18.095Z,5.97
2023-05-09T12:59:11.263Z,6.03
2023-05-09T13:01:59.112Z,5.78
2023-05-09T13:04:45.064Z,5.13
2023-05-09T13:07:39.129Z,5.53
2023-05-09T13:10:30.362Z,4.63
2023-05-09T13:13:16.498Z,5.60
2023-05-09T13:16:05.750Z,6.30
2023-05-09T13:18:52.673Z,5.13
2023-05-09T13:21:38.487Z,5.72
2023-05-09T13:24:24.431Z,5.07
2023-05-09T13:27:10.966Z,4.50
2023-05-09T13:29:56.843Z,3.53
2023-05-09T13:32:44.234Z,4.22
2023-05-09T13:35:30.365Z,4.95
2023-05-09T13:38:16.039Z,6.70
2023-05-09T13:41:01.607Z,4.70
2023-05-09T13:43:47.478Z,5.45
2023-05-09T13:46:33.174Z,6.22
2023-05-09T13:49:20.408Z,8.38
2023-05-09T13:52:06.813Z,6.25
2023-05-09T13:54:52.767Z,5.20
2023-05-09T13:57:38.949Z,5.85
2023-05-09T14:00:26.560Z,6.75
2023-05-09T14:03:12.109Z,6.93
2023-05-09T14:05:59.734Z,6.45
2023-05-09T14:08:45.826Z,6.53
2023-05-09T14:11:31.769Z,7.60
2023-05-09T14:14:17.814Z,8.02
2023-05-09T14:17:04.476Z,8.07
2023-05-09T14:19:50.119Z,8.23
2023-05-09T14:22:37.346Z,7.97
2023-05-09T14:25:23.106Z,8.57
2023-05-09T14:28:09.559Z,7.70
2023-05-09T14:30:55.459Z,7.70
2023-05-09T14:33:41.212Z,10.27
2023-05-09T14:36:27.307Z,9.77
2023-05-09T14:39:14.185Z,9.90
2023-05-09T14:42:00.181Z,7.70
2023-05-09T14:44:47.280Z,7.40
2023-05-09T14:47:34.337Z,7.95
2023-05-09T14:50:21.559Z,8.70
2023-05-09T14:53:07.703Z,8.40
2023-05-09T14:55:55.276Z,8.77
2023-05-09T14:58:41.079Z,7.82
2023-05-09T15:01:26.977Z,8.60
2023-05-09T15:04:13.208Z,8.75
2023-05-09T15:06:59.841Z,7.32
2023-05-09T15:09:46.108Z,7.45
2023-05-09T15:12:36.317Z,7.35
2023-05-09T15:15:24.053Z,8.27
2023-05-09T15:18:10.332Z,7.47
2023-05-09T15:20:56.591Z,8.60
2023-05-09T15:23:42.075Z,8.23
2023-05-09T15:26:28.057Z,8.77
2023-05-09T15:29:15.385Z,8.27
2023-05-09T15:32:01.222Z,9.23
2023-05-09T15:34:47.343Z,6.25
2023-05-09T15:37:35.066Z,6.45
2023-05-09T15:40:21.410Z,6.38
2023-05-09T15:43:08.356Z,7.35
2023-05-09T15:45:58.508Z,6.05
2023-05-09T15:48:44.543Z,7.00
2023-05-09T15:51:31.077Z,7.10
2023-05-09T15:54:17.198Z,7.45
2023-05-09T15:57:03.683Z,10.27
2023-05-09T15:59:49.508Z,7.88
2023-05-09T16:02:36.772Z,11.57
2023-05-09T16:05:22.540Z,8.60
2023-05-09T16:08:07.966Z,9.48
2023-05-09T16:10:54.092Z,7.90
2023-05-09T16:13:40.024Z,12.30
2023-05-09T16:16:25.875Z,9.38
2023-05-09T16:19:14.013Z,8.35
2023-05-09T16:21:59.801Z,8.85
2023-05-09T16:24:45.314Z,8.10
2023-05-09T16:27:31.305Z,8.68
2023-05-09T16:30:17.476Z,8.57
2023-05-09T16:33:03.910Z,8.65
2023-05-09T16:35:51.393Z,9.43
2023-05-09T16:38:37.049Z,11.95
2023-05-09T16:41:23.046Z,9.25
2023-05-09T16:44:09.095Z,9.32
2023-05-09T16:46:54.922Z,11.63
2023-05-09T16:49:41.094Z,9.38
2023-05-09T16:52:28.058Z,9.73
2023-05-09T16:55:13.671Z,8.90
2023-05-09T16:57:59.189Z,9.60
2023-05-09T17:00:45.312Z,8.48
2023-05-09T17:03:31.286Z,8.02
2023-05-09T17:06:17.306Z,8.20
2023-05-09T17:09:10.165Z,8.25
2023-05-09T17:11:56.208Z,8.13
2023-05-09T17:14:42.179Z,7.90
2023-05-09T17:17:27.771Z,7.60
2023-05-09T17:20:13.699Z,8.45
2023-05-09T17:23:02.672Z,7.45
2023-05-09T17:25:50.480Z,6.13
2023-05-09T17:28:36.909Z,6.20
2023-05-09T17:31:22.794Z,5.80
2023-05-09T17:34:08.414Z,6.88
2023-05-09T17:36:54.158Z,6.32
2023-05-09T17:39:40.727Z,7.22
2023-05-09T17:42:27.506Z,7.15
2023-05-09T17:45:13.220Z,7.35
2023-05-09T17:48:01.361Z,7.40
2023-05-09T17:50:47.144Z,7.88
2023-05-09T17:53:33.406Z,7.88
2023-05-09T17:56:19.229Z,7.05
2023-05-09T17:59:06.536Z,10.43
2023-05-09T18:01:52.821Z,8.02
2023-05-09T18:04:39.149Z,8.02
2023-05-09T18:07:25.283Z,10.73
2023-05-09T18:10:11.707Z,7.78
2023-05-09T18:12:57.571Z,8.57
2023-05-09T18:15:44.724Z,8.27
2023-05-09T18:18:34.294Z,9.13
2023-05-09T18:21:20.224Z,9.27
2023-05-09T18:24:07.639Z,10.18
2023-05-09T18:26:53.346Z,9.60
2023-05-09T18:29:38.988Z,10.40
2023-05-09T18:32:26.218Z,9.50
2023-05-09T18:35:12.936Z,9.98
2023-05-09T18:37:59.128Z,10.43
2023-05-09T18:40:45.629Z,11.70
2023-05-09T18:43:31.200Z,10.70
2023-05-09T18:46:21.362Z,10.43
2023-05-09T18:49:09.518Z,9.57
2023-05-09T18:51:56.452Z,11.10
2023-05-09T18:54:42.796Z,9.90
2023-05-09T18:57:28.636Z,9.55
2023-05-09T19:00:15.239Z,11.50
2023-05-09T19:03:01.658Z,10.10
2023-05-09T19:05:48.600Z,9.50
2023-05-09T19:08:34.570Z,10.98
2023-05-09T19:11:20.184Z,10.48
2023-05-09T19:14:06.564Z,8.88
2023-05-09T19:16:52.122Z,11.75
2023-05-09T19:19:38.222Z,9.65
2023-05-09T19:22:25.237Z,10.23
2023-05-09T19:25:10.814Z,9.82
2023-05-09T19:27:56.469Z,11.52
2023-05-09T19:30:42.300Z,11.63
2023-05-09T19:33:28.307Z,14.20
2023-05-09T19:36:14.495Z,13.80
2023-05-09T19:39:01.380Z,13.75
2023-05-09T19:41:46.848Z,14.20
2023-05-09T19:44:32.818Z,14.18
2023-05-09T19:47:18.365Z,15.07
2023-05-09T19:50:04.601Z,16.65
2023-05-09T19:52:50.675Z,16.10
2023-05-09T19:55:37.947Z,18.75
2023-05-09T19:58:23.745Z,19.70
2023-05-09T20:01:10.155Z,20.55
2023-05-09T20:03:56.833Z,19.17
2023-05-09T20:06:42.439Z,20.95
2023-05-09T20:09:28.063Z,21.20
2023-05-09T20:12:15.980Z,20.73
2023-05-09T20:15:01.735Z,21.77
2023-05-09T20:17:48.276Z,22.90
2023-05-09T20:20:33.999Z,23.10
2023-05-09T20:23:19.466Z,24.45
2023-05-09T20:26:05.614Z,24.85
2023-05-09T20:28:54.501Z,22.05
2023-05-09T20:31:41.549Z,25.25
2023-05-09T20:34:27.367Z,25.95
2023-05-09T20:37:13.630Z,27.98
2023-05-09T20:40:00.516Z,31.08
2023-05-09T20:42:46.315Z,27.38
2023-05-09T20:45:33.220Z,26.75
2023-05-09T20:48:22.435Z,26.92
2023-05-09T20:51:08.418Z,24.55
2023-05-09T20:53:54.199Z,24.65
2023-05-09T20:56:40.041Z,20.83
2023-05-09T20:59:25.650Z,25.83
2023-05-09T21:02:13.620Z,21.00
2023-05-09T21:04:59.288Z,24.40
2023-05-09T21:07:45.089Z,27.50
2023-05-09T21:10:30.880Z,29.40
2023-05-09T21:13:16.361Z,28.73
2023-05-09T21:16:02.040Z,28.27
2023-05-09T21:18:48.893Z,31.48
2023-05-09T21:21:34.522Z,31.25
2023-05-09T21:24:20.070Z,33.75
2023-05-09T21:27:06.164Z,34.13
2023-05-09T21:29:52.105Z,32.88
2023-05-09T21:32:37.631Z,32.92
2023-05-09T21:35:24.920Z,35.75
2023-05-09T21:38:11.003Z,35.08
2023-05-09T21:40:56.403Z,40.63
2023-05-09T21:43:41.926Z,45.47
2023-05-09T21:46:27.633Z,47.53
2023-05-09T21:49:16.545Z,49.35
2023-05-09T21:52:04.195Z,46.15
2023-05-09T21:54:50.095Z,53.15
2023-05-09T21:57:35.640Z,57.05
2023-05-09T22:00:21.467Z,54.72
2023-05-09T22:03:07.278Z,63.50
2023-05-09T22:05:52.904Z,63.38
2023-05-09T22:08:39.938Z,66.60
2023-05-09T22:11:25.259Z,72.10
2023-05-09T22:14:11.237Z,76.03
2023-05-09T22:16:56.748Z,78.35
2023-05-09T22:19:42.120Z,83.82
2023-05-09T22:22:27.870Z,76.72
2023-05-09T22:25:15.220Z,86.75
2023-05-09T22:28:01.111Z,84.75
2023-05-09T22:30:47.102Z,87.30
2023-05-09T22:33:32.576Z,89.07
2023-05-09T22:36:18.498Z,84.20
2023-05-09T22:39:03.950Z,88.25
2023-05-09T22:41:51.044Z,88.45
2023-05-09T22:44:36.856Z,77.38
2023-05-09T22:47:22.686Z,81.32
2023-05-09T22:50:09.400Z,88.20
2023-05-09T22:52:55.113Z,84.57
2023-05-09T22:55:40.559Z,78.30
2023-05-09T22:58:27.785Z,83.15
2023-05-09T23:01:13.871Z,87.15
2023-05-09T23:04:01.043Z,84.35
2023-05-09T23:06:46.551Z,81.28
2023-05-09T23:09:31.942Z,82.65
2023-05-09T23:12:17.698Z,82.15
2023-05-09T23:15:05.647Z,88.70
2023-05-09T23:17:51.482Z,84.20
2023-05-09T23:20:37.515Z,83.25
2023-05-09T23:23:23.203Z,88.30
2023-05-09T23:26:10.140Z,86.85
2023-05-09T23:28:56.173Z,89.90
2023-05-09T23:31:43.452Z,93.22
2023-05-09T23:34:30.749Z,101.97
2023-05-09T23:37:16.832Z,98.22
2023-05-09T23:40:03.769Z,98.80
2023-05-09T23:42:49.164Z,100.60
2023-05-09T23:45:35.642Z,94.10
2023-05-09T23:48:23.908Z,101.13
2023-05-09T23:51:09.511Z,102.47
2023-05-09T23:53:55.125Z,110.35
2023-05-09T23:56:41.190Z,107.60
2023-05-09T23:59:26.644Z,110.45
